Miercoles, 29 de Julio del 2015

portal contactenos mapa del sitio buscar Revisar Correo Corporativo

|Reporte METAR por Reginal » ||Reporte TAF por Reginal » ||Reporte METAR, TAF y SIN覲TICO »

Reporte METAR por Regional

|| La Paz || Santa Cruz || Cochabamba || Beni - Pando ||

Informe METAR emitido cada hora.

Regional La Paz

ESTACIÓN

AEROPUERTO

HORA UTC

DESCRIPCIÓN

SLRY

Reyes

14-18S|67-21W

22:00

SLRY 292200Z 00000KT 9999 NSC 30/23 Q1013 A2993 HR66 RWY OPR 700M=

SLRQ

Rurrenabaque

14-25S|67-29W

22:00

SLRQ 292200Z 00000KT 9999 FEW017 29/26 Q1012 A2990 HR82=

SLAP

Apolo

14-44S|68-24W

-

Mensaje no Recibido

SLSB

San Borja

14-51S|66-44W

23:00

SLSB 292300Z 00000KT 9999 NSC 28/24 Q1011 A2988 HR79 RWY NML=

SLLP

Internaci贸nal El Alto

16-08S|68-10W

23:00

SLLP 292300Z 10009KT 9999 NSC 09/M07 Q1038 A3066 628.2 CI HR33 NOSIG=

SLCN

Chara帽a

17-35S|69-25W

-

Mensaje no Recibido

SLOR

Oruro

17-57S|67-04W

22:00

SLOR 292200Z 36015KT 9999 NSC 14/M03 Q1036 A3059 656.6 HR29=

SLUY

Uyuni

20-27S|62-52W

23:00

SLUY 292300Z 00000KT 9999 NSC 04/M08 Q1035 A3057 659.2 HR41=

Regional Cochabamba

ESTACIÓN

AEROPUERTO

HORA UTC

DESCRIPCIÓN

SLCB

Cochabamba

17-25S|66-10W

23:00

SLCB 292300Z 15003KT 9999 NSC 21/M05 Q1025 A3027 751.4 HR19 FU CI NOSIG=

SLSU

Sucre

19-00S|65-17W

23:00

SLSU 292300Z 00000KT 9999 NSC 15/M00 Q1029 A3040 HR36=

SLPO

Potos铆

19-32S|65-43W

21:00

SLPO 292100Z 05008KT 9999 NSC 14/M04 Q1034 A3053 HR27=

SLAG

Monteagudo

19-49S|63-58W

21:00

SLAG 292100Z WO ATTN=

SLVM

Villamontes

21-15S|63-24W

21:00

SLVM 292100Z 18010KT 9999 BKN023 30/20 Q1011 A2986 HR58=

SLTJ

Tarija

21-33S|64-42W

23:00

SLTJ 292300Z 13010KT 9999 NSC 19/12 Q1020 A3013 HR64=

SLYA

Yacuiba

21-57S|63-39W

23:00

SLYA 292300Z 00000KT 9999 SCT070 22/19 Q1016 A3001 HR85 FU=

SLBJ

Bermejo

22-46S|64-18W

21:00

SLBJ 292100Z 00000KT 9999 FEW015 30/22 Q1009 A2980 HR62=

Regional Santa Cruz

ESTACIÓN

AEROPUERTO

HORA UTC

DESCRIPCIÓN

SLAS

Ascenci贸n de Guarayos

15-55S|63-09W

23:00

SLAS 292300Z 00000KT 9999 NSC 27/21 Q1015 A2997 HR68 RWY NML=

SLCP

Concepci贸n

16-08S|62-01W

22:00

SLCP 292200Z 00000KT 9999 NSC 28/21 Q1017 A3003 HR65 RWY NML=

SLJV

San Javier

16-16S|62-28W

22:00

SLJV 292200Z 00000KT 9999 NSC 27/21 Q1014 A2994 HR71 RWY NML=

SLTI

San Mat铆as

16-20S|58-24W

22:00

SLTI 292200Z 00000KT 9999 NSC 28/23 Q1019 A3009 HR72 RWY NML=

SLSI

San Ignacio de Velasco

16-23S|60-57W

23:00

SLSI 292300Z 00000KT 9999 NSC 26/22 Q1015 A2997 HR78 RWY NML=

SLVR

Internaci贸nal Viru Viru

17-38S|63-08W

23:00

SLVR 292300Z 35007KT 9999 NSC 25/20 Q1014 A2996 HR72 NOSIG=

SLET

El Trompillo

17-48S|63-10W

23:00

SLET 292300Z 32010KT 9999 FEW017 SCT200 27/21 Q1013 A2993 HR73 NOSIG=

SLJE

San Jos茅 de Chiquitos

17-49S|60-44W

22:00

SLJE 292200Z 00000KT 9999 NSC 28/20 Q1016 A3000 HR61 RWY NML=

SLRB

Robor茅

18-19S|59-45W

23:00

SLRB 292300Z 00000KT 9999 NSC 29/20 Q1017 A3003 HR60 RWY NML=

SLVG

Valle Grande

18-28S|64-05W

21:00

SLVG 292100Z 03005KT 9999 NSC 20/12 Q1025 A3027 HR59 RWY NML=

SLPS

Puerto Su谩rez

18-58S|57-49W

23:00

SLPS 292300Z 00000KT 9999 NSC 27/20 Q1013 A2992 HR65 FU=

SLCA

Camiri

20-00S|63-31W

23:00

SLCA 292300Z 00000KT 9999 SCT036 25/19 Q1017 A3003 HR69 RWY NML=

Regional Beni

ESTACIÓN

AEROPUERTO

HORA UTC

DESCRIPCIÓN

SLGM

Guayaramer铆n

10-49S|65-20W

23:00

SLGM 292300Z 00000KT 9999 NSC 29/23 Q1012 A2989 HR69=

SLRI

Riberalta

11-00S|66-04W

23:00

SLRI 292300Z 00000KT 9999 FEW017 29/23 Q1012 A2989 HR70=

SLCO

Cobija

11-02S|68-47W

22:00

SLCO 292200Z 18003KT 9999 FEW027 FEW030TCU 32/24 Q1012 A2990 985.1 HR60 TCU/W AC FU=

SLJO

San Joaquin

13-03S|64-39W

22:00

SLJO 292200Z 00000KT 9999 FEW017 32/22 Q1013 A2993 HR56 RWY NML=

SLMG

San Magdalena

13-15S|64-03W

23:00

SLMG 292300Z 00000KT 9999 NSC 29/24 Q1013 A2994 HR73 RWY NML=

SLRA

San Ram贸n

13-15S|64-36W

22:00

SLRA 292200Z 00000KT 9999 FEW017 31/23 Q1013 A2993 HR60 RWY NML=

SLBU

Baures

13-39S|63-42W

22:00

SLBU 292200Z 00000KT 9999 FEW023 34/22 Q1013 A2992 HR51 RWY NML=

SLSA

Santa Ana de Yacuma

13-45S|65-26W

23:00

SLSA 292300Z 00000KT 9999 FEW020 30/23 Q1011 A2987 HR66=

SLSR

Santa Rosa

14-04S|66-47W

22:00

SLSR 292200Z 00000KT 9999 NSC 32/23 Q1008 A2978 HR58 RWY NML=

SLTR

Trinidad

14-49S|64-54W

23:00

SLTR 292300Z 00000KT 9999 NSC 29/23 Q1012 A2991 994.2 HR71 CI NOSIG=

SLSM

San Ignacio de Moxos

14-57S|65-38W

22:00

SLSM 292200Z 00000KT 9999 NSC 32/22 Q1010 A2984 HR57 CI RWY NML=